createdAt,value
2023-01-17T00:02:10.363Z,-1.16
2023-01-17T00:04:56.060Z,-1.19
2023-01-17T00:07:43.471Z,-1.22
2023-01-17T00:10:19.301Z,-1.27
2023-01-17T00:12:49.039Z,-1.31
2023-01-17T00:15:19.850Z,-1.37
2023-01-17T00:17:48.208Z,-1.41
2023-01-17T00:20:35.885Z,-1.45
2023-01-17T00:23:35.198Z,-1.50
2023-01-17T00:26:05.611Z,-1.52
2023-01-17T00:28:38.105Z,-1.54
2023-01-17T00:31:07.115Z,-1.57
2023-01-17T00:33:34.571Z,-1.61
2023-01-17T00:36:02.457Z,-1.64
2023-01-17T00:38:32.099Z,-1.68
2023-01-17T00:41:05.293Z,-1.71
2023-01-17T00:43:51.672Z,-1.74
2023-01-17T00:46:38.350Z,-1.76
2023-01-17T00:49:25.061Z,-1.79
2023-01-17T00:52:10.793Z,-1.82
2023-01-17T00:54:56.481Z,-1.85
2023-01-17T00:57:42.163Z,-1.88
2023-01-17T01:00:28.406Z,-1.91
2023-01-17T01:03:14.159Z,-1.94
2023-01-17T01:05:59.953Z,-1.98
2023-01-17T01:08:48.754Z,-2.00
2023-01-17T01:11:37.898Z,-2.03
2023-01-17T01:14:25.638Z,-2.05
2023-01-17T01:17:11.458Z,-2.06
2023-01-17T01:19:57.119Z,-2.08
2023-01-17T01:22:42.824Z,-2.10
2023-01-17T01:25:28.536Z,-2.12
2023-01-17T01:28:26.118Z,-2.13
2023-01-17T01:31:12.038Z,-2.14
2023-01-17T01:33:39.335Z,-2.16
2023-01-17T01:36:08.736Z,-2.18
2023-01-17T01:38:35.936Z,-2.19
2023-01-17T01:41:03.402Z,-2.20
2023-01-17T01:43:50.126Z,-2.21
2023-01-17T01:46:20.950Z,-2.21
2023-01-17T01:48:57.050Z,-2.21
2023-01-17T01:51:31.628Z,-2.20
2023-01-17T01:54:09.417Z,-2.19
2023-01-17T01:56:37.335Z,-2.19
2023-01-17T01:59:07.708Z,-2.19
2023-01-17T02:01:36.322Z,-2.19
2023-01-17T02:04:04.647Z,-2.18
2023-01-17T02:06:40.226Z,-2.18
2023-01-17T02:09:10.431Z,-2.16
2023-01-17T02:11:38.985Z,-2.15
2023-01-17T02:14:08.914Z,-2.15
2023-01-17T02:16:44.168Z,-2.14
2023-01-17T02:19:27.822Z,-2.14
2023-01-17T02:22:18.961Z,-2.14
2023-01-17T02:25:12.239Z,-2.15
2023-01-17T02:27:42.177Z,-2.16
2023-01-17T02:30:50.709Z,-2.17
2023-01-17T02:33:46.054Z,-2.17
2023-01-17T02:36:22.681Z,-2.18
2023-01-17T02:39:03.579Z,-2.18
2023-01-17T02:41:42.013Z,-2.18
2023-01-17T02:44:10.928Z,-2.19
2023-01-17T02:46:56.556Z,-2.20
2023-01-17T02:49:29.615Z,-2.21
2023-01-17T02:52:02.761Z,-2.23
2023-01-17T02:54:41.365Z,-2.24
2023-01-17T02:57:36.757Z,-2.26
2023-01-17T03:00:21.787Z,-2.28
2023-01-17T03:03:02.572Z,-2.30
2023-01-17T03:05:36.659Z,-2.31
2023-01-17T03:08:04.589Z,-2.33
2023-01-17T03:10:36.420Z,-2.34
2023-01-17T03:13:04.438Z,-2.35
2023-01-17T03:15:31.535Z,-2.34
2023-01-17T03:18:13.921Z,-2.31
2023-01-17T03:20:41.142Z,-2.27
2023-01-17T03:23:08.145Z,-2.23
2023-01-17T03:25:35.125Z,-2.18
2023-01-17T03:28:03.747Z,-2.14
2023-01-17T03:30:31.006Z,-2.09
2023-01-17T03:32:58.116Z,-2.05
2023-01-17T03:35:25.182Z,-2.01
2023-01-17T03:37:52.187Z,-1.98
2023-01-17T03:40:19.353Z,-1.95
2023-01-17T03:42:46.362Z,-1.92
2023-01-17T03:45:13.572Z,-1.89
2023-01-17T03:47:40.581Z,-1.87
2023-01-17T03:50:08.330Z,-1.85
2023-01-17T03:52:35.493Z,-1.84
2023-01-17T03:55:02.894Z,-1.83
2023-01-17T03:57:29.965Z,-1.83
2023-01-17T03:59:57.045Z,-1.82
2023-01-17T04:02:24.773Z,-1.82
2023-01-17T04:04:51.814Z,-1.81
2023-01-17T04:07:18.793Z,-1.81
2023-01-17T04:09:45.816Z,-1.80
2023-01-17T04:12:12.833Z,-1.80
2023-01-17T04:14:41.314Z,-1.80
2023-01-17T04:17:13.041Z,-1.79
2023-01-17T04:19:41.420Z,-1.78
2023-01-17T04:22:08.590Z,-1.78
2023-01-17T04:24:36.000Z,-1.76
2023-01-17T04:27:04.708Z,-1.75
2023-01-17T04:29:32.060Z,-1.74
2023-01-17T04:31:59.030Z,-1.73
2023-01-17T04:34:26.592Z,-1.72
2023-01-17T04:36:53.620Z,-1.72
2023-01-17T04:39:20.592Z,-1.72
2023-01-17T04:41:47.609Z,-1.71
2023-01-17T04:44:14.723Z,-1.71
2023-01-17T04:46:41.796Z,-1.70
2023-01-17T04:49:08.796Z,-1.69
2023-01-17T04:51:36.503Z,-1.68
2023-01-17T04:54:03.896Z,-1.66
2023-01-17T04:56:30.889Z,-1.66
2023-01-17T04:58:58.512Z,-1.67
2023-01-17T05:01:26.043Z,-1.67
2023-01-17T05:03:53.069Z,-1.66
2023-01-17T05:06:20.136Z,-1.65
2023-01-17T05:08:47.278Z,-1.64
2023-01-17T05:11:14.356Z,-1.63
2023-01-17T05:13:41.301Z,-1.63
2023-01-17T05:16:08.361Z,-1.62
2023-01-17T05:18:35.363Z,-1.62
2023-01-17T05:21:03.226Z,-1.62
2023-01-17T05:23:30.396Z,-1.62
2023-01-17T05:25:57.527Z,-1.62
2023-01-17T05:28:24.645Z,-1.63
2023-01-17T05:30:52.210Z,-1.64
2023-01-17T05:33:19.222Z,-1.64
2023-01-17T05:35:46.212Z,-1.63
2023-01-17T05:38:13.160Z,-1.63
2023-01-17T05:40:40.157Z,-1.62
2023-01-17T05:43:07.423Z,-1.60
2023-01-17T05:45:34.673Z,-1.59
2023-01-17T05:48:03.192Z,-1.58
2023-01-17T05:50:36.574Z,-1.55
2023-01-17T05:53:10.059Z,-1.55
2023-01-17T05:55:38.577Z,-1.53
2023-01-17T05:58:06.868Z,-1.52
2023-01-17T06:00:33.866Z,-1.50
2023-01-17T06:03:01.852Z,-1.49
2023-01-17T06:05:29.923Z,-1.48
2023-01-17T06:07:57.640Z,-1.47
2023-01-17T06:10:25.932Z,-1.46
2023-01-17T06:13:15.430Z,-1.45
2023-01-17T06:15:42.892Z,-1.44
2023-01-17T06:18:12.835Z,-1.41
2023-01-17T06:20:40.781Z,-1.38
2023-01-17T06:23:11.790Z,-1.37
2023-01-17T06:25:44.957Z,-1.36
2023-01-17T06:28:14.564Z,-1.34
2023-01-17T06:30:42.562Z,-1.33
2023-01-17T06:33:09.991Z,-1.32
2023-01-17T06:35:38.457Z,-1.31
2023-01-17T06:38:05.517Z,-1.30
2023-01-17T06:40:32.986Z,-1.29
2023-01-17T06:43:02.062Z,-1.28
2023-01-17T06:45:30.152Z,-1.27
2023-01-17T06:47:59.323Z,-1.25
2023-01-17T06:50:26.992Z,-1.22
2023-01-17T06:52:59.929Z,-1.18
2023-01-17T06:55:28.992Z,-1.15
2023-01-17T06:57:57.321Z,-1.12
2023-01-17T07:00:24.549Z,-1.09
2023-01-17T07:02:52.769Z,-1.04
2023-01-17T07:05:20.360Z,-1.00
2023-01-17T07:07:47.893Z,-0.97
2023-01-17T07:10:15.604Z,-0.95
2023-01-17T07:12:43.024Z,-0.92
2023-01-17T07:15:11.237Z,-0.90
2023-01-17T07:17:38.877Z,-0.88
2023-01-17T07:20:06.735Z,-0.86
2023-01-17T07:22:34.051Z,-0.81
2023-01-17T07:25:01.146Z,-0.76
2023-01-17T07:27:30.797Z,-0.70
2023-01-17T07:29:58.144Z,-0.67
2023-01-17T07:32:26.853Z,-0.65
2023-01-17T07:34:56.993Z,-0.63
2023-01-17T07:37:24.115Z,-0.59
2023-01-17T07:39:51.134Z,-0.54
2023-01-17T07:42:18.371Z,-0.50
2023-01-17T07:44:45.709Z,-0.46
2023-01-17T07:47:12.755Z,-0.44
2023-01-17T07:49:40.130Z,-0.43
2023-01-17T07:52:08.304Z,-0.42
2023-01-17T07:54:35.794Z,-0.39
2023-01-17T07:57:03.256Z,-0.35
2023-01-17T07:59:30.344Z,-0.33
2023-01-17T08:01:57.557Z,-0.32
2023-01-17T08:04:28.949Z,-0.30
2023-01-17T08:06:56.021Z,-0.28
2023-01-17T08:09:23.169Z,-0.25
2023-01-17T08:11:50.218Z,-0.20
2023-01-17T08:14:17.314Z,-0.17
2023-01-17T08:16:44.351Z,-0.13
2023-01-17T08:19:11.591Z,-0.09
2023-01-17T08:21:38.645Z,-0.03
2023-01-17T08:24:05.955Z,0.04
2023-01-17T08:26:33.019Z,0.11
2023-01-17T08:29:01.247Z,0.19
2023-01-17T08:31:32.960Z,0.28
2023-01-17T08:34:00.462Z,0.36
2023-01-17T08:36:28.801Z,0.42
2023-01-17T08:38:55.923Z,0.46
2023-01-17T08:41:24.099Z,0.52
2023-01-17T08:43:52.084Z,0.63
2023-01-17T08:46:19.815Z,0.72
2023-01-17T08:48:46.803Z,0.80
2023-01-17T08:51:14.098Z,0.88
2023-01-17T08:53:42.084Z,0.94
2023-01-17T08:56:09.742Z,1.00
2023-01-17T08:58:36.807Z,1.04
2023-01-17T09:01:06.207Z,1.09
2023-01-17T09:03:34.763Z,1.15
2023-01-17T09:06:07.751Z,1.19
2023-01-17T09:08:35.596Z,1.22
2023-01-17T09:11:11.387Z,1.24
2023-01-17T09:13:39.612Z,1.25
2023-01-17T09:16:09.178Z,1.26
2023-01-17T09:18:37.641Z,1.28
2023-01-17T09:21:17.192Z,1.35
2023-01-17T09:23:45.140Z,1.45
2023-01-17T09:26:21.976Z,1.54
2023-01-17T09:28:49.197Z,1.62
2023-01-17T09:31:17.563Z,1.70
2023-01-17T09:33:45.022Z,1.75
2023-01-17T09:36:12.555Z,1.79
2023-01-17T09:38:40.297Z,1.84
2023-01-17T09:41:35.495Z,1.88
2023-01-17T09:44:31.914Z,1.88
2023-01-17T09:47:14.995Z,1.82
2023-01-17T09:49:47.165Z,1.77
2023-01-17T09:52:18.780Z,1.72
2023-01-17T09:54:48.137Z,1.68
2023-01-17T09:57:35.053Z,1.68
2023-01-17T10:00:30.369Z,1.67
2023-01-17T10:03:23.680Z,1.69
2023-01-17T10:06:29.380Z,1.72
2023-01-17T10:09:10.753Z,1.74
2023-01-17T10:12:05.930Z,1.75
2023-01-17T10:14:50.117Z,1.78
2023-01-17T10:17:36.583Z,1.83
2023-01-17T10:20:21.792Z,1.89
2023-01-17T10:23:01.264Z,1.93
2023-01-17T10:25:52.735Z,1.99
2023-01-17T10:28:35.232Z,2.06
2023-01-17T10:31:11.133Z,2.15
2023-01-17T10:34:03.932Z,2.24
2023-01-17T10:36:38.287Z,2.29
2023-01-17T10:39:16.367Z,2.32
2023-01-17T10:41:47.116Z,2.32
2023-01-17T10:44:52.262Z,2.33
2023-01-17T10:47:24.725Z,2.34
2023-01-17T10:49:54.455Z,2.37
2023-01-17T10:52:53.493Z,2.42
2023-01-17T10:55:39.138Z,2.46
2023-01-17T10:58:12.699Z,2.50
2023-01-17T11:01:00.688Z,2.56
2023-01-17T11:03:28.955Z,2.62
2023-01-17T11:06:20.112Z,2.68
2023-01-17T11:08:52.131Z,2.74
2023-01-17T11:11:22.217Z,2.77
2023-01-17T11:13:51.427Z,2.82
2023-01-17T11:16:21.927Z,2.85
2023-01-17T11:19:06.875Z,2.88
2023-01-17T11:21:34.178Z,2.91
2023-01-17T11:24:10.570Z,2.93
2023-01-17T11:26:46.726Z,2.91
2023-01-17T11:29:39.229Z,2.88
2023-01-17T11:32:32.281Z,2.82
2023-01-17T11:35:20.545Z,2.76
2023-01-17T11:37:53.549Z,2.72
2023-01-17T11:40:26.566Z,2.69
2023-01-17T11:43:25.733Z,2.66
2023-01-17T11:46:02.040Z,2.64
2023-01-17T11:48:36.043Z,2.61
2023-01-17T11:51:04.890Z,2.58
2023-01-17T11:53:39.015Z,2.55
2023-01-17T11:56:11.330Z,2.53
2023-01-17T15:02:15.664Z,1.58
2023-01-17T15:04:43.418Z,1.73
2023-01-17T15:07:19.621Z,1.73
2023-01-17T15:09:47.311Z,1.73
2023-01-17T15:12:14.758Z,1.73
2023-01-17T15:14:45.821Z,1.72
2023-01-17T15:17:20.509Z,1.71
2023-01-17T15:19:57.388Z,1.70
2023-01-17T15:22:26.177Z,1.69
2023-01-17T15:24:54.177Z,1.69
2023-01-17T15:27:21.742Z,1.68
2023-01-17T15:29:49.254Z,1.68
2023-01-17T15:32:28.071Z,1.66
2023-01-17T15:34:55.463Z,1.64
2023-01-17T15:37:33.322Z,1.62
2023-01-17T15:40:14.467Z,1.60
2023-01-17T15:42:44.241Z,1.58
2023-01-17T15:45:16.402Z,1.56
2023-01-17T15:47:43.516Z,1.54
2023-01-17T15:50:30.368Z,1.52
2023-01-17T15:52:57.807Z,1.49
2023-01-17T15:55:48.083Z,1.48
2023-01-17T15:58:28.018Z,1.47
2023-01-17T16:00:56.216Z,1.46
2023-01-17T16:05:02.049Z,1.44
2023-01-17T16:07:36.277Z,1.39
2023-01-17T16:10:14.266Z,1.36
2023-01-17T16:12:42.328Z,1.34
2023-01-17T16:15:42.232Z,1.32
2023-01-17T16:19:46.984Z,1.30
2023-01-17T16:22:14.062Z,1.28
2023-01-17T16:24:41.107Z,1.27
2023-01-17T16:27:09.322Z,1.26
2023-01-17T16:29:36.496Z,1.26
2023-01-17T16:32:08.874Z,1.26
2023-01-17T16:34:36.157Z,1.27
2023-01-17T16:37:04.415Z,1.26
2023-01-17T16:39:31.767Z,1.25
2023-01-17T16:42:03.177Z,1.24
2023-01-17T16:44:31.505Z,1.23
2023-01-17T16:47:02.273Z,1.22
2023-01-17T16:51:07.947Z,1.22
2023-01-17T16:53:36.514Z,1.20
2023-01-17T16:56:12.382Z,1.20
2023-01-17T16:58:40.542Z,1.21
2023-01-17T17:01:16.002Z,1.22
2023-01-17T17:03:44.387Z,1.23
2023-01-17T17:06:12.426Z,1.24
2023-01-17T17:08:39.992Z,1.25
2023-01-17T17:11:13.315Z,1.24
2023-01-17T17:13:42.142Z,1.24
2023-01-17T17:16:21.199Z,1.24
2023-01-17T17:18:55.981Z,1.25
2023-01-17T17:21:23.553Z,1.26
2023-01-17T17:23:57.047Z,1.27
2023-01-17T17:26:34.541Z,1.27
2023-01-17T17:29:02.960Z,1.27
2023-01-17T17:31:30.367Z,1.27
2023-01-17T17:34:00.093Z,1.28
2023-01-17T17:36:27.778Z,1.29
2023-01-17T17:38:56.252Z,1.31
2023-01-17T17:41:27.337Z,1.34
2023-01-17T17:43:55.544Z,1.36
2023-01-17T17:46:24.942Z,1.38
2023-01-17T17:48:52.338Z,1.39
2023-01-17T17:51:35.266Z,1.41
2023-01-17T17:54:05.101Z,1.42
2023-01-17T17:56:33.914Z,1.42
2023-01-17T17:59:03.235Z,1.42
2023-01-17T18:01:30.714Z,1.42
2023-01-17T18:04:02.238Z,1.42
2023-01-17T18:06:29.494Z,1.42
2023-01-17T18:08:56.760Z,1.43
2023-01-17T18:11:26.248Z,1.45
2023-01-17T18:13:55.318Z,1.46
2023-01-17T18:16:24.108Z,1.46
2023-01-17T18:18:53.520Z,1.48
2023-01-17T18:21:25.267Z,1.51
2023-01-17T18:23:59.012Z,1.52
2023-01-17T18:26:29.444Z,1.54
2023-01-17T18:28:58.414Z,1.56
2023-01-17T18:31:29.697Z,1.59
2023-01-17T18:34:04.545Z,1.62
2023-01-17T18:36:31.781Z,1.65
2023-01-17T18:38:58.966Z,1.67
2023-01-17T18:41:29.061Z,1.69
2023-01-17T18:43:56.507Z,1.71
2023-01-17T18:46:26.089Z,1.73
2023-01-17T18:48:57.212Z,1.74
2023-01-17T18:51:25.414Z,1.76
2023-01-17T18:53:55.251Z,1.77
2023-01-17T18:56:23.520Z,1.78
2023-01-17T18:58:51.283Z,1.81
2023-01-17T19:01:22.918Z,1.82
2023-01-17T19:03:53.014Z,1.82
2023-01-17T19:06:24.737Z,1.82
2023-01-17T19:08:52.649Z,1.83
2023-01-17T19:11:22.646Z,1.83
2023-01-17T19:13:50.526Z,1.82
2023-01-17T19:16:21.470Z,1.82
2023-01-17T19:18:48.644Z,1.82
2023-01-17T19:21:19.206Z,1.81
2023-01-17T19:23:46.927Z,1.78
2023-01-17T19:26:17.510Z,1.77
2023-01-17T19:28:47.264Z,1.76
2023-01-17T19:31:17.527Z,1.75
2023-01-17T19:33:47.056Z,1.73
2023-01-17T19:36:23.663Z,1.73
2023-01-17T19:39:03.603Z,1.73
2023-01-17T19:41:37.208Z,1.73
2023-01-17T19:44:07.012Z,1.73
2023-01-17T19:46:35.311Z,1.75
2023-01-17T19:49:03.289Z,1.75
2023-01-17T19:51:30.751Z,1.76
2023-01-17T19:54:01.964Z,1.77
2023-01-17T19:56:30.151Z,1.77
2023-01-17T19:59:01.670Z,1.77
2023-01-17T20:01:32.368Z,1.76
2023-01-17T20:04:01.318Z,1.76
2023-01-17T20:06:31.480Z,1.76
2023-01-17T20:08:59.504Z,1.77
2023-01-17T20:11:28.008Z,1.76
2023-01-17T20:13:57.204Z,1.76
2023-01-17T20:16:26.810Z,1.76
2023-01-17T20:18:54.326Z,1.75
2023-01-17T20:21:24.428Z,1.75
2023-01-17T20:23:53.191Z,1.74
2023-01-17T20:26:23.632Z,1.73
2023-01-17T20:28:52.181Z,1.72
2023-01-17T20:31:22.018Z,1.71
2023-01-17T20:33:52.920Z,1.70
2023-01-17T20:36:22.272Z,1.70
2023-01-17T20:38:49.936Z,1.70
2023-01-17T20:41:23.215Z,1.71
2023-01-17T20:43:52.830Z,1.72
2023-01-17T20:46:21.836Z,1.74
2023-01-17T20:48:51.724Z,1.78
2023-01-17T20:51:20.626Z,1.80
2023-01-17T20:53:51.968Z,1.84
2023-01-17T20:56:19.302Z,1.87
2023-01-17T20:58:46.500Z,1.89
2023-01-17T21:01:22.827Z,1.91
2023-01-17T21:03:54.042Z,1.92
2023-01-17T21:06:23.214Z,1.93
2023-01-17T21:08:51.285Z,1.94
2023-01-17T21:11:21.524Z,1.94
2023-01-17T21:13:48.939Z,1.92
2023-01-17T21:16:17.977Z,1.92
2023-01-17T21:18:50.150Z,1.90
2023-01-17T21:21:22.223Z,1.89
2023-01-17T21:23:51.472Z,1.88
2023-01-17T21:26:20.533Z,1.86
2023-01-17T21:28:49.211Z,1.84
2023-01-17T21:31:27.258Z,1.82
2023-01-17T21:34:00.212Z,1.80
2023-01-17T21:36:30.839Z,1.77
2023-01-17T21:38:59.851Z,1.76
2023-01-17T21:41:29.461Z,1.74
2023-01-17T21:43:59.215Z,1.72
2023-01-17T21:46:28.099Z,1.71
2023-01-17T21:48:56.910Z,1.69
2023-01-17T21:51:24.826Z,1.68
2023-01-17T21:53:51.905Z,1.67
2023-01-17T21:56:37.697Z,1.66
2023-01-17T21:59:04.978Z,1.64
2023-01-17T22:01:33.506Z,1.63
2023-01-17T22:04:03.159Z,1.62
2023-01-17T22:06:39.349Z,1.62
2023-01-17T22:09:06.566Z,1.60
2023-01-17T22:11:36.829Z,1.58
2023-01-17T22:14:04.833Z,1.57
2023-01-17T22:16:32.145Z,1.56
2023-01-17T22:18:59.519Z,1.55
2023-01-17T22:21:28.709Z,1.54
2023-01-17T22:23:58.830Z,1.53
2023-01-17T22:26:29.110Z,1.52
2023-01-17T22:28:59.452Z,1.53
2023-01-17T22:31:28.039Z,1.52
2023-01-17T22:34:03.007Z,1.52
2023-01-17T22:36:32.500Z,1.51
2023-01-17T22:39:00.252Z,1.50
2023-01-17T22:41:34.960Z,1.48
2023-01-17T22:44:03.127Z,1.45
2023-01-17T22:46:33.017Z,1.42
2023-01-17T22:49:00.763Z,1.39
2023-01-17T22:51:29.262Z,1.37
2023-01-17T22:53:59.015Z,1.34
2023-01-17T22:56:32.315Z,1.32
2023-01-17T22:59:00.984Z,1.31
2023-01-17T23:01:31.147Z,1.30
2023-01-17T23:04:00.775Z,1.30
2023-01-17T23:06:35.157Z,1.29
2023-01-17T23:09:10.868Z,1.29
2023-01-17T23:11:41.177Z,1.28
2023-01-17T23:14:12.219Z,1.27
2023-01-17T23:17:00.733Z,1.27
2023-01-17T23:19:31.715Z,1.25
2023-01-17T23:22:16.179Z,1.25
2023-01-17T23:25:05.141Z,1.25
2023-01-17T23:27:55.587Z,1.24
2023-01-17T23:30:25.505Z,1.22
2023-01-17T23:32:56.023Z,1.22
2023-01-17T23:35:27.279Z,1.20
2023-01-17T23:38:13.937Z,1.20
2023-01-17T23:40:42.704Z,1.18
2023-01-17T23:43:25.125Z,1.17
2023-01-17T23:45:54.808Z,1.15
2023-01-17T23:48:25.635Z,1.15
2023-01-17T23:50:59.080Z,1.15
2023-01-17T23:53:27.583Z,1.15
2023-01-17T23:55:56.958Z,1.15
2023-01-17T23:58:26.567Z,1.15
